createdAt,value
2023-05-08T00:02:24.892Z,8.84
2023-05-08T00:04:56.824Z,8.84
2023-05-08T00:07:28.750Z,8.86
2023-05-08T00:10:01.220Z,8.91
2023-05-08T00:12:32.886Z,8.88
2023-05-08T00:15:05.588Z,8.88
2023-05-08T00:17:35.933Z,8.80
2023-05-08T00:20:09.753Z,8.76
2023-05-08T00:22:41.865Z,8.73
2023-05-08T00:25:13.692Z,8.69
2023-05-08T00:27:45.331Z,8.61
2023-05-08T00:30:17.594Z,8.57
2023-05-08T00:32:49.462Z,8.55
2023-05-08T00:35:21.490Z,8.54
2023-05-08T00:37:53.203Z,8.45
2023-05-08T00:40:25.336Z,8.41
2023-05-08T00:42:57.120Z,8.38
2023-05-08T00:45:33.938Z,8.26
2023-05-08T00:48:07.995Z,8.21
2023-05-08T00:50:40.125Z,8.16
2023-05-08T00:53:12.814Z,8.10
2023-05-08T00:55:43.136Z,8.04
2023-05-08T00:58:16.553Z,8.12
2023-05-08T01:00:50.293Z,8.19
2023-05-08T01:03:23.901Z,8.19
2023-05-08T01:05:56.919Z,8.19
2023-05-08T01:08:27.380Z,8.19
2023-05-08T01:11:18.929Z,8.18
2023-05-08T01:14:08.885Z,8.17
2023-05-08T01:16:45.192Z,8.19
2023-05-08T01:19:44.520Z,8.15
2023-05-08T01:22:29.398Z,8.09
2023-05-08T01:25:38.634Z,8.08
2023-05-08T01:28:32.345Z,8.00
2023-05-08T01:31:17.676Z,7.93
2023-05-08T01:33:56.762Z,7.86
2023-05-08T01:36:41.030Z,7.87
2023-05-08T01:39:20.037Z,7.93
2023-05-08T01:42:01.726Z,7.90
2023-05-08T01:44:38.599Z,7.86
2023-05-08T01:47:13.227Z,7.86
2023-05-08T01:49:50.302Z,7.85
2023-05-08T01:52:29.007Z,7.82
2023-05-08T01:55:04.615Z,7.76
2023-05-08T01:57:39.348Z,7.78
2023-05-08T02:00:13.795Z,7.73
2023-05-08T02:02:48.538Z,7.67
2023-05-08T02:05:22.292Z,7.70
2023-05-08T02:07:55.546Z,7.65
2023-05-08T02:10:31.227Z,7.62
2023-05-08T02:13:05.366Z,7.65
2023-05-08T02:15:38.730Z,7.64
2023-05-08T02:18:13.012Z,7.65
2023-05-08T02:20:45.307Z,7.63
2023-05-08T02:23:19.000Z,7.61
2023-05-08T02:25:52.459Z,7.54
2023-05-08T02:28:25.745Z,7.53
2023-05-08T02:30:59.610Z,7.54
2023-05-08T02:33:33.966Z,7.52
2023-05-08T02:36:08.367Z,7.51
2023-05-08T02:38:42.763Z,7.53
2023-05-08T02:41:18.560Z,7.54
2023-05-08T02:43:52.675Z,7.52
2023-05-08T02:46:31.019Z,7.48
2023-05-08T02:49:06.450Z,7.50
2023-05-08T02:51:50.198Z,7.49
2023-05-08T02:54:30.222Z,7.46
2023-05-08T02:57:07.402Z,7.49
2023-05-08T02:59:45.734Z,7.46
2023-05-08T03:02:29.657Z,7.48
2023-05-08T03:05:09.258Z,7.43
2023-05-08T03:07:45.062Z,7.47
2023-05-08T03:10:19.695Z,7.45
2023-05-08T03:12:54.567Z,7.45
2023-05-08T03:15:32.964Z,7.44
2023-05-08T03:18:08.882Z,7.29
2023-05-08T03:20:44.614Z,7.16
2023-05-08T03:23:19.466Z,7.20
2023-05-08T03:25:52.440Z,7.25
2023-05-08T03:28:25.438Z,7.22
2023-05-08T03:30:59.964Z,7.15
2023-05-08T03:33:33.768Z,7.07
2023-05-08T03:36:07.105Z,6.95
2023-05-08T03:38:39.157Z,6.90
2023-05-08T03:41:12.685Z,6.84
2023-05-08T03:43:45.320Z,6.86
2023-05-08T03:46:20.248Z,6.93
2023-05-08T03:48:54.207Z,6.92
2023-05-08T03:51:27.907Z,6.83
2023-05-08T03:53:59.667Z,6.77
2023-05-08T03:56:31.969Z,6.79
2023-05-08T03:59:15.330Z,6.75
2023-05-08T04:01:56.207Z,6.79
2023-05-08T04:04:39.780Z,6.87
2023-05-08T04:07:17.016Z,6.99
2023-05-08T04:10:01.204Z,7.10
2023-05-08T04:12:37.088Z,7.07
2023-05-08T04:15:12.864Z,7.17
2023-05-08T04:17:48.853Z,7.22
2023-05-08T04:20:24.146Z,7.26
2023-05-08T04:22:58.106Z,7.35
2023-05-08T04:25:31.878Z,7.37
2023-05-08T04:28:04.166Z,7.33
2023-05-08T04:30:34.990Z,7.31
2023-05-08T04:33:08.560Z,7.28
2023-05-08T04:35:41.170Z,7.38
2023-05-08T04:38:13.154Z,7.48
2023-05-08T04:40:45.681Z,7.47
2023-05-08T04:43:17.607Z,7.52
2023-05-08T04:45:49.639Z,7.59
2023-05-08T04:48:21.434Z,7.61
2023-05-08T04:50:53.358Z,7.70
2023-05-08T04:53:25.607Z,7.75
2023-05-08T04:55:59.245Z,7.81
2023-05-08T04:58:31.341Z,7.87
2023-05-08T05:01:06.342Z,7.95
2023-05-08T05:03:38.607Z,7.93
2023-05-08T05:06:10.744Z,7.98
2023-05-08T05:08:41.892Z,8.03
2023-05-08T05:11:14.313Z,8.13
2023-05-08T05:13:46.257Z,8.16
2023-05-08T05:16:18.538Z,8.20
2023-05-08T05:18:50.993Z,8.25
2023-05-08T05:21:23.112Z,8.28
2023-05-08T05:23:55.056Z,8.32
2023-05-08T05:26:26.804Z,8.37
2023-05-08T05:28:59.135Z,8.40
2023-05-08T05:31:31.949Z,8.46
2023-05-08T05:34:02.631Z,8.53
2023-05-08T05:36:34.876Z,8.62
2023-05-08T05:39:06.947Z,8.71
2023-05-08T05:41:39.405Z,8.75
2023-05-08T05:44:11.234Z,8.83
2023-05-08T05:46:44.478Z,8.89
2023-05-08T05:49:16.784Z,8.94
2023-05-08T05:51:49.573Z,9.01
2023-05-08T05:54:21.791Z,9.05
2023-05-08T05:56:54.349Z,9.12
2023-05-08T05:59:26.407Z,9.17
2023-05-08T06:01:59.387Z,9.22
2023-05-08T06:04:31.514Z,9.24
2023-05-08T06:07:03.470Z,9.32
2023-05-08T06:09:36.588Z,9.37
2023-05-08T06:12:08.545Z,9.42
2023-05-08T06:14:40.828Z,9.43
2023-05-08T06:17:12.171Z,9.46
2023-05-08T06:19:44.087Z,9.51
2023-05-08T06:22:15.877Z,9.55
2023-05-08T06:24:48.113Z,9.58
2023-05-08T06:27:22.949Z,9.63
2023-05-08T06:29:55.325Z,9.70
2023-05-08T06:32:27.718Z,9.75
2023-05-08T06:34:59.468Z,9.79
2023-05-08T06:37:31.249Z,9.88
2023-05-08T06:40:12.258Z,9.95
2023-05-08T06:42:44.885Z,10.00
2023-05-08T06:45:17.091Z,10.01
2023-05-08T06:47:48.900Z,10.02
2023-05-08T06:50:21.764Z,10.05
2023-05-08T06:52:51.989Z,10.12
2023-05-08T06:55:24.421Z,10.16
2023-05-08T06:57:56.269Z,10.22
2023-05-08T07:00:28.637Z,10.30
2023-05-08T07:03:00.426Z,10.35
2023-05-08T07:05:32.511Z,10.40
2023-05-08T07:08:04.414Z,10.42
2023-05-08T07:10:36.241Z,10.44
2023-05-08T07:13:08.078Z,10.46
2023-05-08T07:15:40.138Z,10.53
2023-05-08T07:18:11.967Z,10.60
2023-05-08T07:20:43.983Z,10.66
2023-05-08T07:23:16.680Z,10.72
2023-05-08T07:25:48.570Z,10.72
2023-05-08T07:28:20.446Z,10.78
2023-05-08T07:30:52.681Z,10.82
2023-05-08T07:33:24.509Z,10.86
2023-05-08T07:35:56.440Z,10.89
2023-05-08T07:38:28.346Z,10.93
2023-05-08T07:41:02.219Z,10.99
2023-05-08T07:43:34.395Z,11.01
2023-05-08T07:46:06.563Z,11.10
2023-05-08T07:48:38.421Z,11.16
2023-05-08T07:51:11.203Z,11.23
2023-05-08T07:53:41.453Z,11.27
2023-05-08T07:56:13.268Z,11.25
2023-05-08T07:58:45.967Z,11.27
2023-05-08T08:01:18.369Z,11.31
2023-05-08T08:03:50.755Z,11.33
2023-05-08T08:06:22.783Z,11.37
2023-05-08T08:08:54.555Z,11.40
2023-05-08T08:11:26.353Z,11.44
2023-05-08T08:13:58.225Z,11.55
2023-05-08T08:16:33.524Z,11.54
2023-05-08T08:19:05.421Z,11.59
2023-05-08T08:21:37.357Z,11.70
2023-05-08T08:24:09.465Z,11.72
2023-05-08T08:26:41.216Z,11.73
2023-05-08T08:29:13.042Z,11.76
2023-05-08T08:31:44.914Z,11.81
2023-05-08T08:34:16.889Z,11.87
2023-05-08T08:36:48.660Z,11.94
2023-05-08T08:39:20.835Z,11.93
2023-05-08T08:41:52.786Z,12.00
2023-05-08T08:44:24.776Z,12.05
2023-05-08T08:46:59.096Z,12.11
2023-05-08T08:49:35.945Z,12.15
2023-05-08T08:52:13.122Z,12.17
2023-05-08T08:54:47.944Z,12.20
2023-05-08T08:57:21.254Z,12.23
2023-05-08T08:59:54.320Z,12.32
2023-05-08T09:02:27.829Z,12.41
2023-05-08T09:05:18.946Z,12.49
2023-05-08T09:07:51.543Z,12.58
2023-05-08T09:10:24.733Z,12.62
2023-05-08T09:12:56.855Z,12.78
2023-05-08T09:15:28.728Z,12.88
2023-05-08T09:18:01.796Z,12.92
2023-05-08T09:20:33.646Z,12.99
2023-05-08T09:23:05.497Z,13.09
2023-05-08T09:25:47.969Z,13.20
2023-05-08T09:28:20.663Z,13.21
2023-05-08T09:30:51.576Z,13.20
2023-05-08T09:33:25.303Z,13.30
2023-05-08T09:35:58.099Z,13.41
2023-05-08T09:38:40.687Z,13.50
2023-05-08T09:41:15.679Z,13.68
2023-05-08T09:44:02.978Z,13.77
2023-05-08T09:46:35.818Z,13.86
2023-05-08T09:49:05.995Z,13.91
2023-05-08T09:51:38.127Z,14.07
2023-05-08T09:54:19.608Z,14.24
2023-05-08T09:56:52.940Z,14.37
2023-05-08T09:59:30.780Z,14.49
2023-05-08T10:02:16.249Z,14.59
2023-05-08T10:04:48.293Z,14.66
2023-05-08T10:07:30.545Z,14.72
2023-05-08T10:10:04.295Z,14.81
2023-05-08T10:12:38.026Z,14.94
2023-05-08T10:15:12.106Z,14.99
2023-05-08T10:17:54.183Z,15.06
2023-05-08T10:20:30.275Z,15.06
2023-05-08T10:23:03.430Z,15.14
2023-05-08T10:25:37.235Z,15.24
2023-05-08T10:28:25.546Z,15.29
2023-05-08T10:31:00.807Z,15.47
2023-05-08T10:33:35.804Z,15.66
2023-05-08T10:36:09.978Z,15.70
2023-05-08T10:38:42.379Z,15.76
2023-05-08T10:41:16.598Z,15.76
2023-05-08T10:43:49.681Z,15.92
2023-05-08T10:46:29.608Z,16.06
2023-05-08T10:49:14.045Z,16.21
2023-05-08T10:51:54.690Z,16.14
2023-05-08T10:54:35.143Z,16.22
2023-05-08T10:57:14.092Z,16.28
2023-05-08T10:59:49.159Z,16.35
2023-05-08T11:02:30.337Z,16.39
2023-05-08T11:08:01.236Z,16.74
2023-05-08T11:10:36.985Z,16.78
2023-05-08T11:13:09.695Z,16.99
2023-05-08T11:15:40.510Z,17.17
2023-05-08T11:18:12.692Z,17.18
2023-05-08T11:20:56.105Z,17.24
2023-05-08T11:23:29.247Z,17.29
2023-05-08T11:26:06.051Z,17.29
2023-05-08T11:28:41.747Z,17.32
2023-05-08T11:31:13.519Z,17.34
2023-05-08T11:33:45.202Z,17.37
2023-05-08T11:36:20.931Z,17.32
2023-05-08T11:39:12.649Z,17.46
2023-05-08T11:41:44.373Z,17.44
2023-05-08T11:44:23.607Z,17.64
2023-05-08T11:46:58.510Z,17.65
2023-05-08T11:49:30.390Z,17.76
2023-05-08T11:52:04.253Z,17.82
2023-05-08T11:54:35.997Z,17.69
2023-05-08T11:57:07.749Z,17.68
2023-05-08T11:59:43.588Z,17.65
2023-05-08T12:02:15.404Z,17.74
2023-05-08T12:04:48.635Z,17.82
2023-05-08T12:07:20.674Z,17.83
2023-05-08T12:09:52.828Z,17.93
2023-05-08T12:12:24.651Z,17.99
2023-05-08T12:14:56.811Z,18.01
2023-05-08T12:17:28.448Z,18.06
2023-05-08T12:20:10.237Z,18.01
2023-05-08T12:22:43.059Z,18.01
2023-05-08T12:25:15.138Z,18.05
2023-05-08T12:27:47.754Z,18.02
2023-05-08T12:30:20.252Z,18.11
2023-05-08T12:32:52.512Z,18.13
2023-05-08T12:35:25.090Z,18.12
2023-05-08T12:38:01.493Z,18.24
2023-05-08T12:40:35.315Z,18.26
2023-05-08T12:43:07.240Z,18.30
2023-05-08T12:45:43.674Z,18.33
2023-05-08T12:48:16.909Z,18.32
2023-05-08T12:50:49.071Z,18.27
2023-05-08T12:53:22.768Z,18.27
2023-05-08T12:55:56.936Z,18.21
2023-05-08T12:58:30.518Z,18.24
2023-05-08T13:01:12.982Z,18.28
2023-05-08T13:03:47.094Z,18.27
2023-05-08T13:06:25.637Z,18.22
2023-05-08T13:08:57.725Z,18.25
2023-05-08T13:11:34.380Z,18.27
2023-05-08T13:14:06.203Z,18.24
2023-05-08T13:16:46.247Z,18.22
2023-05-08T13:19:18.919Z,18.16
2023-05-08T13:21:53.497Z,18.24
2023-05-08T13:24:25.849Z,18.37
2023-05-08T13:26:56.484Z,18.43
2023-05-08T13:29:28.419Z,18.47
2023-05-08T13:32:00.419Z,18.55
2023-05-08T13:34:32.230Z,18.54
2023-05-08T13:37:04.183Z,18.55
2023-05-08T13:39:37.448Z,18.58
2023-05-08T13:42:09.242Z,18.58
2023-05-08T13:44:40.970Z,18.67
2023-05-08T13:47:12.760Z,18.76
2023-05-08T13:49:46.941Z,18.84
2023-05-08T13:52:18.881Z,18.74
2023-05-08T13:54:50.876Z,18.85
2023-05-08T13:57:22.788Z,19.05
2023-05-08T13:59:54.758Z,19.03
2023-05-08T14:02:26.744Z,19.14
2023-05-08T14:04:58.876Z,19.21
2023-05-08T14:07:31.010Z,19.33
2023-05-08T14:10:03.073Z,19.42
2023-05-08T14:12:36.642Z,19.55
2023-05-08T14:15:11.923Z,19.63
2023-05-08T14:17:44.543Z,19.65
2023-05-08T14:20:16.533Z,19.70
2023-05-08T14:22:48.498Z,19.79
2023-05-08T14:25:20.966Z,19.87
2023-05-08T14:27:52.667Z,19.94
2023-05-08T14:30:25.045Z,19.96
2023-05-08T14:32:56.925Z,20.14
2023-05-08T14:35:28.887Z,20.29
2023-05-08T14:38:01.008Z,20.25
2023-05-08T14:40:33.097Z,20.24
2023-05-08T14:43:04.881Z,20.17
2023-05-08T14:45:37.399Z,20.20
2023-05-08T14:48:09.590Z,20.44
2023-05-08T14:50:40.390Z,20.65
2023-05-08T14:53:12.382Z,20.58
2023-05-08T14:55:44.753Z,20.56
2023-05-08T14:58:17.041Z,20.73
2023-05-08T15:00:49.176Z,20.90
2023-05-08T15:03:21.090Z,20.94
2023-05-08T15:05:52.999Z,20.99
2023-05-08T15:08:25.594Z,21.03
2023-05-08T15:10:57.363Z,21.29
2023-05-08T15:13:29.390Z,21.44
2023-05-08T15:16:01.458Z,21.33
2023-05-08T15:18:33.285Z,21.40
2023-05-08T15:21:05.472Z,21.51
2023-05-08T15:23:37.400Z,21.50
2023-05-08T15:26:09.440Z,21.29
2023-05-08T15:28:42.620Z,21.19
2023-05-08T15:31:14.728Z,21.13
2023-05-08T15:33:48.217Z,21.31
2023-05-08T15:36:20.740Z,21.46
2023-05-08T15:38:53.917Z,21.62
2023-05-08T15:41:26.083Z,21.56
2023-05-08T15:43:58.229Z,21.72
2023-05-08T15:46:30.267Z,22.09
2023-05-08T15:49:02.976Z,22.03
2023-05-08T15:51:35.368Z,21.98
2023-05-08T15:54:07.611Z,21.60
2023-05-08T15:56:39.664Z,21.79
2023-05-08T15:59:11.944Z,21.71
2023-05-08T16:01:44.161Z,21.60
2023-05-08T16:04:16.532Z,21.52
2023-05-08T16:06:48.375Z,21.42
2023-05-08T16:09:20.121Z,21.40
2023-05-08T16:11:51.952Z,21.43
2023-05-08T16:14:23.762Z,21.64
2023-05-08T16:16:55.841Z,21.86
2023-05-08T16:19:27.878Z,22.14
2023-05-08T16:22:00.043Z,22.14
2023-05-08T16:24:33.333Z,22.33
2023-05-08T16:27:05.428Z,22.50
2023-05-08T16:29:38.210Z,22.83
2023-05-08T16:32:10.168Z,22.96
2023-05-08T16:34:42.193Z,23.07
2023-05-08T16:37:14.251Z,23.15
2023-05-08T16:39:45.946Z,23.30
2023-05-08T16:42:18.963Z,23.12
2023-05-08T16:44:51.508Z,22.95
2023-05-08T16:47:23.584Z,22.59
2023-05-08T16:49:55.600Z,22.02
2023-05-08T16:52:27.499Z,21.44
2023-05-08T16:54:59.553Z,20.94
2023-05-08T16:57:31.580Z,20.27
2023-05-08T17:00:04.655Z,19.94
2023-05-08T17:02:36.816Z,19.53
2023-05-08T17:05:09.944Z,19.28
2023-05-08T17:07:41.812Z,19.07
2023-05-08T17:10:14.043Z,18.90
2023-05-08T17:12:45.929Z,18.67
2023-05-08T17:15:17.804Z,18.52
2023-05-08T17:17:50.407Z,18.40
2023-05-08T17:20:20.824Z,18.18
2023-05-08T17:22:53.805Z,17.97
2023-05-08T17:25:25.928Z,17.84
2023-05-08T17:27:58.567Z,17.55
2023-05-08T17:30:30.219Z,17.52
2023-05-08T17:33:03.679Z,17.51
2023-05-08T17:35:35.528Z,17.68
2023-05-08T17:38:07.219Z,17.91
2023-05-08T17:40:39.992Z,17.81
2023-05-08T17:43:12.421Z,18.12
2023-05-08T17:45:45.560Z,18.28
2023-05-08T17:48:17.435Z,18.32
2023-05-08T17:50:50.213Z,18.17
2023-05-08T17:53:22.052Z,18.09
2023-05-08T17:55:54.780Z,18.14
2023-05-08T17:58:26.831Z,17.87
2023-05-08T18:00:58.953Z,17.91
2023-05-08T18:03:31.836Z,18.15
2023-05-08T18:06:03.879Z,18.18
2023-05-08T18:08:35.791Z,18.23
2023-05-08T18:11:07.900Z,18.10
2023-05-08T18:13:40.129Z,18.09
2023-05-08T18:16:11.909Z,17.44
2023-05-08T18:18:43.832Z,17.03
2023-05-08T18:21:15.717Z,16.67
2023-05-08T18:23:47.607Z,16.29
2023-05-08T18:26:19.710Z,16.12
2023-05-08T18:28:51.623Z,16.00
2023-05-08T18:31:23.645Z,15.91
2023-05-08T18:33:55.395Z,15.83
2023-05-08T18:36:28.010Z,15.72
2023-05-08T18:39:00.062Z,15.67
2023-05-08T18:41:31.798Z,15.59
2023-05-08T18:44:05.134Z,15.54
2023-05-08T18:46:37.107Z,15.47
2023-05-08T18:49:09.229Z,15.37
2023-05-08T18:51:42.002Z,15.25
2023-05-08T18:54:13.866Z,15.15
2023-05-08T18:56:45.996Z,15.11
2023-05-08T18:59:17.720Z,15.07
2023-05-08T19:01:51.023Z,14.96
2023-05-08T19:04:22.909Z,14.86
2023-05-08T19:06:54.799Z,14.81
2023-05-08T19:09:27.121Z,14.70
2023-05-08T19:11:59.453Z,14.65
2023-05-08T19:14:31.271Z,14.64
2023-05-08T19:17:03.125Z,14.59
2023-05-08T19:19:35.124Z,14.47
2023-05-08T19:22:07.188Z,14.44
2023-05-08T19:24:39.767Z,14.42
2023-05-08T19:27:11.581Z,14.34
2023-05-08T19:29:43.498Z,14.33
2023-05-08T19:32:15.245Z,14.26
2023-05-08T19:34:47.075Z,14.17
2023-05-08T19:37:19.098Z,14.11
2023-05-08T19:39:53.866Z,14.05
2023-05-08T19:42:25.893Z,13.99
2023-05-08T19:44:57.653Z,13.97
2023-05-08T19:47:29.487Z,13.93
2023-05-08T19:50:01.321Z,13.74
2023-05-08T19:52:33.359Z,13.75
2023-05-08T19:55:05.439Z,13.74
2023-05-08T19:57:37.507Z,13.66
2023-05-08T20:00:11.255Z,13.48
2023-05-08T20:02:43.370Z,13.45
2023-05-08T20:05:22.411Z,13.38
2023-05-08T20:07:55.030Z,13.45
2023-05-08T20:10:27.312Z,13.43
2023-05-08T20:12:59.141Z,13.40
2023-05-08T20:15:31.049Z,13.28
2023-05-08T20:18:03.076Z,13.28
2023-05-08T20:20:35.444Z,13.30
2023-05-08T20:23:07.257Z,13.31
2023-05-08T20:25:38.981Z,13.30
2023-05-08T20:28:10.730Z,13.24
2023-05-08T20:30:42.945Z,13.25
2023-05-08T20:33:14.679Z,13.22
2023-05-08T20:35:46.763Z,13.09
2023-05-08T20:38:18.975Z,12.97
2023-05-08T20:40:51.203Z,12.92
2023-05-08T20:43:22.917Z,12.94
2023-05-08T20:45:54.738Z,12.86
2023-05-08T20:48:26.549Z,12.80
2023-05-08T20:50:58.432Z,12.82
2023-05-08T20:53:30.496Z,12.79
2023-05-08T20:56:06.541Z,12.76
2023-05-08T20:58:39.141Z,12.71
2023-05-08T21:01:12.053Z,12.70
2023-05-08T21:03:43.834Z,12.65
2023-05-08T21:06:15.876Z,12.63
2023-05-08T21:08:47.838Z,12.65
2023-05-08T21:11:19.613Z,12.52
2023-05-08T21:13:51.374Z,12.48
2023-05-08T21:16:24.841Z,12.45
2023-05-08T21:18:58.535Z,12.45
2023-05-08T21:21:30.489Z,12.40
2023-05-08T21:24:02.676Z,12.38
2023-05-08T21:26:34.490Z,12.37
2023-05-08T21:29:07.294Z,12.34
2023-05-08T21:31:37.698Z,12.30
2023-05-08T21:34:09.580Z,12.30
2023-05-08T21:36:42.085Z,12.31
2023-05-08T21:39:14.524Z,12.30
2023-05-08T21:41:46.968Z,12.28
2023-05-08T21:44:18.738Z,12.25
2023-05-08T21:46:50.776Z,12.22
2023-05-08T21:49:22.655Z,12.17
2023-05-08T21:51:54.761Z,12.15
2023-05-08T21:54:26.533Z,12.15
2023-05-08T21:56:58.243Z,12.07
2023-05-08T21:59:30.230Z,11.99
2023-05-08T22:02:02.925Z,11.96
2023-05-08T22:04:34.843Z,11.94
2023-05-08T22:07:06.604Z,11.82
2023-05-08T22:09:38.334Z,11.75
2023-05-08T22:12:11.274Z,11.78
2023-05-08T22:14:43.035Z,11.76
2023-05-08T22:17:14.803Z,11.78
2023-05-08T22:19:46.554Z,11.75
2023-05-08T22:22:18.421Z,11.74
2023-05-08T22:24:50.201Z,11.74
2023-05-08T22:27:21.911Z,11.69
2023-05-08T22:29:53.626Z,11.68
2023-05-08T22:32:25.439Z,11.66
2023-05-08T22:34:57.198Z,11.59
2023-05-08T22:37:30.059Z,11.51
2023-05-08T22:40:02.010Z,11.51
2023-05-08T22:42:33.751Z,11.50
2023-05-08T22:45:06.134Z,11.46
2023-05-08T22:47:38.339Z,11.39
2023-05-08T22:50:11.772Z,11.32
2023-05-08T22:52:44.042Z,11.33
2023-05-08T22:55:16.806Z,11.29
2023-05-08T22:57:48.861Z,11.24
2023-05-08T23:00:21.795Z,11.19
2023-05-08T23:02:52.178Z,11.18
2023-05-08T23:05:24.530Z,11.13
2023-05-08T23:07:56.265Z,11.11
2023-05-08T23:10:27.909Z,11.04
2023-05-08T23:13:00.039Z,10.93
2023-05-08T23:15:32.192Z,10.83
2023-05-08T23:18:04.359Z,10.87
2023-05-08T23:20:36.358Z,10.87
2023-05-08T23:23:08.169Z,10.81
2023-05-08T23:25:39.858Z,10.81
2023-05-08T23:28:11.920Z,10.84
2023-05-08T23:30:43.641Z,10.77
2023-05-08T23:33:15.749Z,10.75
2023-05-08T23:35:47.469Z,10.74
2023-05-08T23:38:19.509Z,10.75
2023-05-08T23:40:51.270Z,10.74
2023-05-08T23:43:22.968Z,10.68
2023-05-08T23:45:54.647Z,10.71
2023-05-08T23:48:26.507Z,10.67
2023-05-08T23:50:58.543Z,10.64
2023-05-08T23:53:30.621Z,10.56
2023-05-08T23:56:02.429Z,10.61
2023-05-08T23:58:34.145Z,10.58
